createdAt,value
2023-03-06T00:01:00.709Z,-1.16
2023-03-06T00:03:28.774Z,-1.15
2023-03-06T00:06:00.438Z,-1.16
2023-03-06T00:08:29.401Z,-1.21
2023-03-06T00:10:57.955Z,-1.23
2023-03-06T00:13:30.087Z,-1.20
2023-03-06T00:16:03.070Z,-1.20
2023-03-06T00:18:30.937Z,-1.21
2023-03-06T00:20:59.178Z,-1.19
2023-03-06T00:23:27.606Z,-1.20
2023-03-06T00:25:55.634Z,-1.20
2023-03-06T00:28:23.703Z,-1.18
2023-03-06T00:30:51.669Z,-1.19
2023-03-06T00:33:19.654Z,-1.23
2023-03-06T00:35:47.582Z,-1.29
2023-03-06T00:38:15.865Z,-1.47
2023-03-06T00:40:43.992Z,-1.53
2023-03-06T00:43:12.636Z,-1.51
2023-03-06T00:45:40.617Z,-1.49
2023-03-06T00:48:10.828Z,-1.49
2023-03-06T00:50:38.814Z,-1.48
2023-03-06T00:53:06.838Z,-1.48
2023-03-06T00:55:34.783Z,-1.45
2023-03-06T00:58:02.705Z,-1.45
2023-03-06T01:00:30.640Z,-1.44
2023-03-06T01:02:58.644Z,-1.43
2023-03-06T01:05:26.719Z,-1.42
2023-03-06T01:07:54.783Z,-1.45
2023-03-06T01:10:23.195Z,-1.48
2023-03-06T01:12:51.165Z,-1.44
2023-03-06T01:15:20.382Z,-1.39
2023-03-06T01:17:53.004Z,-1.37
2023-03-06T01:20:21.765Z,-1.31
2023-03-06T01:22:49.691Z,-1.31
2023-03-06T01:25:17.747Z,-1.19
2023-03-06T01:27:45.611Z,-1.11
2023-03-06T01:30:13.782Z,-1.01
2023-03-06T01:32:41.891Z,-1.05
2023-03-06T01:35:10.439Z,-1.02
2023-03-06T01:37:41.041Z,-0.98
2023-03-06T01:40:13.035Z,-0.92
2023-03-06T01:42:42.561Z,-0.82
2023-03-06T01:45:13.271Z,-0.74
2023-03-06T01:47:41.304Z,-0.68
2023-03-06T01:50:11.747Z,-0.63
2023-03-06T01:53:00.838Z,-0.59
2023-03-06T01:55:35.095Z,-0.56
2023-03-06T01:58:15.997Z,-0.56
2023-03-06T02:00:44.356Z,-0.56
2023-03-06T02:03:26.472Z,-0.58
2023-03-06T02:05:55.918Z,-0.53
2023-03-06T02:08:26.398Z,-0.53
2023-03-06T02:11:14.589Z,-0.50
2023-03-06T02:13:44.923Z,-0.52
2023-03-06T02:16:17.072Z,-0.47
2023-03-06T02:18:47.218Z,-0.45
2023-03-06T02:21:28.872Z,-0.43
2023-03-06T02:24:44.935Z,-0.42
2023-03-06T02:27:14.864Z,-0.40
2023-03-06T02:29:43.965Z,-0.38
2023-03-06T02:32:12.951Z,-0.37
2023-03-06T02:34:40.846Z,-0.35
2023-03-06T02:37:11.308Z,-0.33
2023-03-06T02:39:48.865Z,-0.31
2023-03-06T02:42:28.879Z,-0.27
2023-03-06T02:45:01.012Z,-0.24
2023-03-06T02:47:29.417Z,-0.24
2023-03-06T02:49:57.285Z,-0.23
2023-03-06T02:52:25.399Z,-0.21
2023-03-06T02:54:53.316Z,-0.22
2023-03-06T02:57:21.521Z,-0.23
2023-03-06T02:59:49.992Z,-0.16
2023-03-06T03:02:17.945Z,-0.19
2023-03-06T03:04:45.938Z,-0.16
2023-03-06T03:07:13.999Z,-0.17
2023-03-06T03:09:42.163Z,-0.14
2023-03-06T03:12:10.641Z,-0.11
2023-03-06T03:14:39.810Z,-0.08
2023-03-06T03:17:08.729Z,-0.09
2023-03-06T03:19:36.639Z,-0.08
2023-03-06T03:22:04.593Z,-0.07
2023-03-06T03:24:33.011Z,-0.08
2023-03-06T03:27:01.936Z,-0.05
2023-03-06T03:29:30.273Z,-0.02
2023-03-06T03:31:58.180Z,-0.03
2023-03-06T03:34:26.685Z,-0.05
2023-03-06T03:36:55.468Z,0.01
2023-03-06T03:39:23.557Z,-0.00
2023-03-06T03:41:52.382Z,0.03
2023-03-06T03:44:21.178Z,0.09
2023-03-06T03:46:49.743Z,0.12
2023-03-06T03:49:20.934Z,0.16
2023-03-06T03:51:49.446Z,0.18
2023-03-06T03:54:18.385Z,0.17
2023-03-06T03:56:47.544Z,0.15
2023-03-06T03:59:20.893Z,0.21
2023-03-06T04:02:04.909Z,0.21
2023-03-06T04:04:36.139Z,0.27
2023-03-06T04:07:04.452Z,0.33
2023-03-06T04:09:32.616Z,0.31
2023-03-06T04:12:01.071Z,0.36
2023-03-06T04:14:30.454Z,0.42
2023-03-06T04:16:58.731Z,0.34
2023-03-06T04:19:27.203Z,0.33
2023-03-06T04:21:55.178Z,0.36
2023-03-06T04:24:23.267Z,0.43
2023-03-06T04:26:51.270Z,0.49
2023-03-06T04:29:19.267Z,0.51
2023-03-06T04:31:47.395Z,0.53
2023-03-06T04:34:15.850Z,0.53
2023-03-06T04:36:46.664Z,0.56
2023-03-06T04:39:15.117Z,0.53
2023-03-06T04:41:43.378Z,0.57
2023-03-06T04:44:11.773Z,0.56
2023-03-06T04:46:39.720Z,0.49
2023-03-06T04:49:07.704Z,0.55
2023-03-06T04:51:38.742Z,0.60
2023-03-06T04:54:06.629Z,0.62
2023-03-06T04:56:34.573Z,0.59
2023-03-06T04:59:04.239Z,0.65
2023-03-06T05:01:32.160Z,0.65
2023-03-06T05:04:00.154Z,0.64
2023-03-06T05:06:29.735Z,0.63
2023-03-06T05:08:57.762Z,0.66
2023-03-06T05:11:25.700Z,0.66
2023-03-06T05:13:53.560Z,0.65
2023-03-06T05:16:21.664Z,0.64
2023-03-06T05:18:50.758Z,0.65
2023-03-06T05:21:18.904Z,0.66
2023-03-06T05:23:50.204Z,0.64
2023-03-06T05:26:18.095Z,0.68
2023-03-06T05:28:46.046Z,0.66
2023-03-06T05:31:13.993Z,0.68
2023-03-06T05:33:42.074Z,0.61
2023-03-06T05:36:10.429Z,0.47
2023-03-06T05:38:38.317Z,0.28
2023-03-06T05:41:06.448Z,0.15
2023-03-06T05:43:34.435Z,0.33
2023-03-06T05:46:08.057Z,0.44
2023-03-06T05:48:37.612Z,0.45
2023-03-06T05:51:06.501Z,0.36
2023-03-06T05:53:34.643Z,0.31
2023-03-06T05:56:09.091Z,0.45
2023-03-06T05:58:37.621Z,0.45
2023-03-06T06:01:15.846Z,0.16
2023-03-06T06:03:44.592Z,-0.05
2023-03-06T06:06:15.078Z,-0.13
2023-03-06T06:08:43.363Z,-0.15
2023-03-06T06:11:14.476Z,-0.09
2023-03-06T06:13:42.413Z,0.05
2023-03-06T06:16:13.352Z,0.07
2023-03-06T06:18:41.641Z,0.21
2023-03-06T06:21:14.384Z,0.31
2023-03-06T06:23:42.742Z,0.12
2023-03-06T06:26:11.096Z,0.06
2023-03-06T06:28:39.062Z,0.01
2023-03-06T06:31:14.241Z,0.04
2023-03-06T06:33:43.166Z,0.01
2023-03-06T06:36:21.699Z,-0.01
2023-03-06T06:38:50.068Z,0.11
2023-03-06T06:41:53.029Z,0.21
2023-03-06T06:44:08.938Z,0.09
2023-03-06T06:49:26.380Z,0.14
2023-03-06T06:51:54.250Z,0.12
2023-03-06T06:54:22.281Z,0.14
2023-03-06T06:56:50.720Z,0.31
2023-03-06T06:59:19.243Z,0.41
2023-03-06T07:01:47.218Z,0.35
2023-03-06T07:04:16.776Z,0.20
2023-03-06T07:06:45.354Z,0.42
2023-03-06T07:09:14.133Z,0.64
2023-03-06T07:11:42.218Z,0.60
2023-03-06T07:14:10.277Z,0.51
2023-03-06T07:16:38.208Z,0.40
2023-03-06T07:19:07.926Z,0.53
2023-03-06T07:21:35.848Z,0.32
2023-03-06T07:24:04.731Z,0.39
2023-03-06T07:26:34.672Z,0.56
2023-03-06T07:29:04.990Z,0.83
2023-03-06T07:31:33.019Z,1.03
2023-03-06T07:34:03.146Z,1.10
2023-03-06T07:36:34.671Z,1.11
2023-03-06T07:39:02.772Z,0.65
2023-03-06T07:41:30.795Z,0.87
2023-03-06T07:43:59.130Z,1.14
2023-03-06T07:46:34.293Z,1.39
2023-03-06T07:49:02.324Z,1.43
2023-03-06T07:51:30.353Z,1.11
2023-03-06T07:53:58.311Z,1.18
2023-03-06T07:56:26.633Z,1.22
2023-03-06T07:58:56.107Z,1.35
2023-03-06T08:01:27.950Z,1.33
2023-03-06T08:03:56.782Z,1.15
2023-03-06T08:06:27.134Z,0.97
2023-03-06T08:08:56.476Z,0.83
2023-03-06T08:11:28.546Z,0.71
2023-03-06T08:13:57.991Z,0.63
2023-03-06T08:16:29.681Z,0.93
2023-03-06T08:18:59.441Z,1.38
2023-03-06T08:21:28.810Z,1.45
2023-03-06T08:23:56.906Z,1.67
2023-03-06T08:26:28.737Z,1.66
2023-03-06T08:29:01.245Z,1.62
2023-03-06T08:31:33.337Z,1.83
2023-03-06T08:34:14.936Z,2.09
2023-03-06T08:36:43.569Z,2.31
2023-03-06T08:39:12.982Z,2.21
2023-03-06T08:41:42.169Z,1.85
2023-03-06T08:44:11.628Z,2.03
2023-03-06T08:46:40.665Z,1.82
2023-03-06T08:49:12.090Z,1.76
2023-03-06T08:51:40.112Z,1.73
2023-03-06T08:54:10.489Z,1.80
2023-03-06T08:56:38.656Z,2.00
2023-03-06T08:59:09.294Z,2.03
2023-03-06T09:01:38.674Z,2.09
2023-03-06T09:04:10.688Z,2.25
2023-03-06T09:06:42.727Z,2.22
2023-03-06T09:09:12.245Z,2.07
2023-03-06T09:11:40.194Z,1.86
2023-03-06T09:14:08.625Z,1.66
2023-03-06T09:16:36.687Z,1.64
2023-03-06T09:19:04.843Z,1.19
2023-03-06T09:21:33.107Z,0.91
2023-03-06T09:24:01.058Z,1.05
2023-03-06T09:26:43.367Z,1.43
2023-03-06T09:29:13.532Z,1.58
2023-03-06T09:31:41.609Z,1.40
2023-03-06T09:34:09.609Z,1.30
2023-03-06T09:36:54.925Z,1.11
2023-03-06T09:39:27.122Z,1.54
2023-03-06T09:41:58.460Z,1.85
2023-03-06T09:44:30.964Z,2.17
2023-03-06T09:47:56.507Z,1.93
2023-03-06T09:50:39.908Z,1.91
2023-03-06T09:53:44.245Z,1.59
2023-03-06T09:56:21.911Z,2.06
2023-03-06T09:58:55.918Z,2.42
2023-03-06T10:01:30.285Z,2.30
2023-03-06T10:04:19.582Z,2.66
2023-03-06T10:06:51.711Z,3.77
2023-03-06T10:09:34.841Z,3.25
2023-03-06T10:12:20.355Z,3.07
2023-03-06T10:15:15.879Z,3.72
2023-03-06T10:17:45.255Z,4.22
2023-03-06T10:20:22.347Z,4.61
2023-03-06T10:23:29.373Z,4.27
2023-03-06T10:26:01.631Z,4.86
2023-03-06T10:29:00.106Z,5.03
2023-03-06T10:31:29.641Z,4.17
2023-03-06T10:34:43.045Z,3.57
2023-03-06T10:37:22.581Z,3.53
2023-03-06T10:40:12.967Z,3.44
2023-03-06T10:42:41.058Z,3.18
2023-03-06T10:45:17.193Z,2.74
2023-03-06T10:47:46.099Z,3.40
2023-03-06T10:50:30.662Z,3.84
2023-03-06T10:53:06.190Z,4.47
2023-03-06T10:55:37.849Z,4.41
2023-03-06T10:58:28.529Z,4.48
2023-03-06T11:01:19.095Z,4.13
2023-03-06T11:03:47.936Z,4.45
2023-03-06T11:06:36.752Z,4.91
2023-03-06T11:09:25.752Z,4.85
2023-03-06T11:12:19.368Z,4.89
2023-03-06T11:14:47.409Z,5.10
2023-03-06T11:17:32.118Z,4.97
2023-03-06T11:20:52.558Z,4.74
2023-03-06T11:23:36.757Z,4.89
2023-03-06T11:26:17.543Z,4.57
2023-03-06T11:29:06.693Z,4.32
2023-03-06T11:31:48.024Z,4.16
2023-03-06T11:34:38.925Z,4.03
2023-03-06T11:37:33.542Z,4.37
2023-03-06T11:40:10.530Z,4.23
2023-03-06T11:43:02.944Z,4.01
2023-03-06T11:45:44.920Z,4.01
2023-03-06T11:48:16.566Z,4.01
2023-03-06T11:50:51.546Z,4.17
2023-03-06T11:53:38.508Z,3.77
2023-03-06T11:56:23.836Z,3.83
2023-03-06T11:59:11.014Z,3.63
2023-03-06T12:02:29.290Z,3.48
2023-03-06T12:05:36.182Z,3.72
2023-03-06T12:08:42.954Z,3.76
2023-03-06T12:11:37.344Z,3.67
2023-03-06T12:14:34.710Z,3.52
2023-03-06T12:17:15.608Z,3.71
2023-03-06T12:20:30.746Z,3.68
2023-03-06T12:23:18.306Z,3.95
2023-03-06T12:26:16.210Z,3.72
2023-03-06T12:29:28.012Z,3.75
2023-03-06T12:32:32.553Z,3.68
2023-03-06T12:35:27.507Z,3.69
2023-03-06T12:38:32.723Z,3.82
2023-03-06T12:41:33.481Z,3.94
2023-03-06T12:44:27.398Z,3.73
2023-03-06T12:47:03.029Z,3.73
2023-03-06T12:49:38.610Z,3.37
2023-03-06T12:52:09.820Z,3.50
2023-03-06T12:54:41.046Z,3.66
2023-03-06T12:57:09.825Z,3.87
2023-03-06T12:59:39.178Z,3.46
2023-03-06T13:02:40.687Z,3.50
2023-03-06T13:05:14.726Z,3.44
2023-03-06T13:08:23.678Z,3.58
2023-03-06T13:11:26.565Z,3.43
2023-03-06T13:13:56.424Z,3.53
2023-03-06T13:16:31.146Z,3.50
2023-03-06T13:19:12.596Z,3.21
2023-03-06T13:21:56.114Z,2.88
2023-03-06T13:24:31.476Z,3.04
2023-03-06T13:27:11.224Z,3.20
2023-03-06T13:29:39.131Z,3.19
2023-03-06T13:32:18.963Z,3.02
2023-03-06T13:34:50.138Z,3.23
2023-03-06T13:37:23.073Z,3.43
2023-03-06T13:40:00.304Z,3.17
2023-03-06T13:42:38.035Z,2.83
2023-03-06T13:45:07.980Z,2.85
2023-03-06T13:48:19.520Z,2.93
2023-03-06T13:50:47.924Z,3.18
2023-03-06T13:54:08.323Z,3.27
2023-03-06T13:57:11.721Z,3.32
2023-03-06T14:00:59.963Z,3.10
2023-03-06T14:03:51.580Z,3.06
2023-03-06T14:06:34.535Z,3.10
2023-03-06T14:09:16.430Z,3.21
2023-03-06T14:11:53.062Z,3.09
2023-03-06T14:14:34.686Z,3.18
2023-03-06T14:17:05.260Z,3.22
2023-03-06T14:19:38.472Z,2.94
2023-03-06T14:22:13.044Z,3.03
2023-03-06T14:24:53.404Z,3.08
2023-03-06T14:27:36.958Z,3.11
2023-03-06T14:30:07.685Z,3.05
2023-03-06T14:32:39.876Z,2.95
2023-03-06T14:35:29.988Z,3.06
2023-03-06T14:38:03.972Z,2.69
2023-03-06T14:40:37.038Z,2.42
2023-03-06T14:43:25.325Z,2.47
2023-03-06T14:46:06.495Z,2.47
2023-03-06T14:48:45.379Z,2.64
2023-03-06T14:51:24.661Z,2.70
2023-03-06T14:53:55.905Z,2.41
2023-03-06T14:56:27.291Z,2.69
2023-03-06T14:59:14.166Z,2.75
2023-03-06T15:01:52.390Z,2.75
2023-03-06T15:04:26.513Z,2.57
2023-03-06T15:06:58.824Z,2.72
2023-03-06T15:09:36.667Z,2.82
2023-03-06T15:12:30.316Z,2.87
2023-03-06T15:15:04.538Z,2.77
2023-03-06T15:17:43.515Z,2.71
2023-03-06T15:20:53.624Z,2.64
2023-03-06T15:23:36.680Z,2.51
2023-03-06T15:26:33.861Z,2.43
2023-03-06T15:29:13.500Z,2.41
2023-03-06T15:31:45.826Z,2.58
2023-03-06T15:34:23.577Z,2.45
2023-03-06T15:36:57.640Z,2.36
2023-03-06T15:39:40.549Z,2.49
2023-03-06T15:42:19.098Z,2.39
2023-03-06T15:44:54.492Z,2.26
2023-03-06T15:47:23.480Z,2.40
2023-03-06T15:49:57.587Z,2.49
2023-03-06T15:52:25.691Z,2.52
2023-03-06T15:54:53.712Z,2.37
2023-03-06T15:57:25.993Z,2.30
2023-03-06T15:59:56.274Z,1.99
2023-03-06T16:02:24.485Z,2.06
2023-03-06T16:04:53.490Z,2.07
2023-03-06T16:07:21.490Z,2.21
2023-03-06T16:09:49.541Z,2.17
2023-03-06T16:12:22.714Z,2.09
2023-03-06T16:14:50.670Z,2.02
2023-03-06T16:17:18.706Z,1.93
2023-03-06T16:19:46.680Z,2.04
2023-03-06T16:22:14.579Z,2.10
2023-03-06T16:24:43.178Z,2.10
2023-03-06T16:27:19.857Z,2.08
2023-03-06T16:29:53.154Z,2.05
2023-03-06T16:32:28.666Z,2.08
2023-03-06T16:34:56.860Z,2.10
2023-03-06T16:37:24.825Z,2.03
2023-03-06T16:39:53.942Z,1.99
2023-03-06T16:42:23.138Z,1.90
2023-03-06T16:44:51.335Z,1.76
2023-03-06T16:47:19.319Z,1.75
2023-03-06T16:49:47.250Z,1.80
2023-03-06T16:52:15.488Z,1.74
2023-03-06T16:54:44.691Z,1.71
2023-03-06T16:57:15.006Z,1.67
2023-03-06T16:59:42.901Z,1.66
2023-03-06T17:02:12.455Z,1.64
2023-03-06T17:04:40.470Z,1.61
2023-03-06T17:07:08.737Z,1.52
2023-03-06T17:09:36.836Z,1.47
2023-03-06T17:12:05.062Z,1.46
2023-03-06T17:14:34.049Z,1.38
2023-03-06T17:17:02.034Z,1.33
2023-03-06T17:19:30.762Z,1.30
2023-03-06T17:21:58.978Z,1.26
2023-03-06T17:24:27.436Z,1.25
2023-03-06T17:26:56.192Z,1.22
2023-03-06T17:29:25.090Z,1.21
2023-03-06T17:31:53.028Z,1.19
2023-03-06T17:34:23.046Z,1.16
2023-03-06T17:36:53.114Z,1.12
2023-03-06T17:39:21.037Z,1.10
2023-03-06T17:41:50.179Z,1.10
2023-03-06T17:44:19.727Z,1.07
2023-03-06T17:46:49.983Z,1.01
2023-03-06T17:49:21.040Z,0.96
2023-03-06T17:51:49.693Z,0.93
2023-03-06T17:54:19.809Z,0.92
2023-03-06T17:56:48.295Z,0.91
2023-03-06T17:59:16.677Z,0.89
2023-03-06T18:01:46.048Z,0.85
2023-03-06T18:04:14.355Z,0.81
2023-03-06T18:06:42.375Z,0.79
2023-03-06T18:09:10.449Z,0.79
2023-03-06T18:11:38.650Z,0.77
2023-03-06T18:14:07.011Z,0.74
2023-03-06T18:16:35.648Z,0.69
2023-03-06T18:19:03.897Z,0.68
2023-03-06T18:21:32.000Z,0.68
2023-03-06T18:24:00.220Z,0.68
2023-03-06T18:26:29.954Z,0.67
2023-03-06T18:29:03.533Z,0.66
2023-03-06T18:31:39.303Z,0.62
2023-03-06T18:34:14.647Z,0.60
2023-03-06T18:36:44.250Z,0.59
2023-03-06T18:39:14.185Z,0.54
2023-03-06T18:41:42.380Z,0.54
2023-03-06T18:44:17.482Z,0.54
2023-03-06T18:46:45.598Z,0.53
2023-03-06T18:49:16.434Z,0.54
2023-03-06T18:51:44.909Z,0.53
2023-03-06T18:54:12.904Z,0.43
2023-03-06T18:56:44.616Z,0.51
2023-03-06T18:59:19.413Z,0.50
2023-03-06T19:01:48.198Z,0.50
2023-03-06T19:04:16.627Z,0.48
2023-03-06T19:06:44.970Z,0.43
2023-03-06T19:09:13.320Z,0.40
2023-03-06T19:11:42.657Z,0.41
2023-03-06T19:14:11.003Z,0.47
2023-03-06T19:16:39.075Z,0.48
2023-03-06T19:19:07.399Z,0.47
2023-03-06T19:21:35.341Z,0.44
2023-03-06T19:24:04.251Z,0.26
2023-03-06T19:26:32.688Z,0.25
2023-03-06T19:29:01.336Z,0.30
2023-03-06T19:31:29.611Z,0.28
2023-03-06T19:33:57.738Z,0.24
2023-03-06T19:36:33.490Z,0.20
2023-03-06T19:39:06.063Z,0.18
2023-03-06T19:41:34.695Z,0.12
2023-03-06T19:44:03.393Z,0.10
2023-03-06T19:46:32.354Z,0.06
2023-03-06T19:49:03.050Z,0.03
2023-03-06T19:51:32.992Z,0.01
2023-03-06T19:54:03.944Z,-0.03
2023-03-06T19:56:33.666Z,-0.05
2023-03-06T19:59:01.632Z,-0.10
2023-03-06T20:01:29.734Z,-0.14
2023-03-06T20:03:59.657Z,-0.19
2023-03-06T20:06:33.707Z,-0.21
2023-03-06T20:09:10.015Z,-0.21
2023-03-06T20:11:40.167Z,-0.22
2023-03-06T20:14:09.126Z,-0.31
2023-03-06T20:16:39.600Z,-0.25
2023-03-06T20:19:08.558Z,-0.27
2023-03-06T20:21:37.695Z,-0.26
2023-03-06T20:24:08.396Z,-0.28
2023-03-06T20:26:38.000Z,-0.33
2023-03-06T20:29:05.980Z,-0.35
2023-03-06T20:31:34.080Z,-0.36
2023-03-06T20:34:03.754Z,-0.33
2023-03-06T20:36:40.094Z,-0.36
2023-03-06T20:39:12.871Z,-0.34
2023-03-06T20:41:41.203Z,-0.36
2023-03-06T20:44:14.158Z,-0.37
2023-03-06T20:46:42.274Z,-0.36
2023-03-06T20:49:14.163Z,-0.36
2023-03-06T20:51:42.359Z,-0.39
2023-03-06T20:54:14.211Z,-0.43
2023-03-06T20:56:48.982Z,-0.45
2023-03-06T20:59:17.473Z,-0.48
2023-03-06T21:01:47.859Z,-0.50
2023-03-06T21:04:16.467Z,-0.54
2023-03-06T21:06:47.040Z,-0.58
2023-03-06T21:09:16.917Z,-0.59
2023-03-06T21:11:46.104Z,-0.56
2023-03-06T21:14:15.096Z,-0.57
2023-03-06T21:16:43.377Z,-0.65
2023-03-06T21:19:11.413Z,-0.70
2023-03-06T21:21:39.483Z,-0.66
2023-03-06T21:24:08.060Z,-0.64
2023-03-06T21:26:36.280Z,-0.64
2023-03-06T21:29:04.991Z,-0.64
2023-03-06T21:31:34.129Z,-0.66
2023-03-06T21:34:04.859Z,-0.67
2023-03-06T21:36:33.878Z,-0.66
2023-03-06T21:39:04.197Z,-0.67
2023-03-06T21:41:33.168Z,-0.68
2023-03-06T21:44:07.609Z,-0.69
2023-03-06T21:46:36.142Z,-0.72
2023-03-06T21:49:05.305Z,-0.76
2023-03-06T21:51:34.509Z,-0.80
2023-03-06T21:54:03.874Z,-0.85
2023-03-06T21:56:33.304Z,-0.96
2023-03-06T21:59:01.411Z,-1.04
2023-03-06T22:01:30.196Z,-1.08
2023-03-06T22:03:59.754Z,-1.08
2023-03-06T22:06:32.160Z,-1.08
2023-03-06T22:09:01.513Z,-1.13
2023-03-06T22:11:37.232Z,-1.13
2023-03-06T22:14:08.186Z,-1.15
2023-03-06T22:16:36.181Z,-1.17
2023-03-06T22:19:04.226Z,-1.20
2023-03-06T22:21:32.198Z,-1.27
2023-03-06T22:24:00.236Z,-1.24
2023-03-06T22:26:29.501Z,-1.23
2023-03-06T22:28:57.504Z,-1.31
2023-03-06T22:31:28.576Z,-1.27
2023-03-06T22:34:00.434Z,-1.29
2023-03-06T22:36:30.758Z,-1.23
2023-03-06T22:39:01.809Z,-1.14
2023-03-06T22:41:31.042Z,-1.23
2023-03-06T22:44:01.898Z,-1.26
2023-03-06T22:46:30.899Z,-1.26
2023-03-06T22:49:00.885Z,-1.22
2023-03-06T22:51:29.691Z,-1.20
2023-03-06T22:53:58.120Z,-1.17
2023-03-06T22:56:26.222Z,-1.16
2023-03-06T22:58:54.755Z,-1.15
2023-03-06T23:01:26.223Z,-1.06
2023-03-06T23:03:59.195Z,-1.01
2023-03-06T23:06:31.277Z,-1.02
2023-03-06T23:09:12.318Z,-1.10
2023-03-06T23:11:59.067Z,-1.05
2023-03-06T23:14:50.940Z,-1.01
2023-03-06T23:17:37.676Z,-0.98
2023-03-06T23:20:24.371Z,-0.94
2023-03-06T23:23:11.287Z,-0.94
2023-03-06T23:25:43.609Z,-0.97
2023-03-06T23:28:11.996Z,-1.12
2023-03-06T23:30:41.071Z,-1.18
2023-03-06T23:33:09.716Z,-1.20
2023-03-06T23:35:39.024Z,-1.19
2023-03-06T23:38:07.246Z,-1.14
2023-03-06T23:40:35.655Z,-1.12
2023-03-06T23:43:04.244Z,-0.93
2023-03-06T23:45:32.689Z,-0.89
2023-03-06T23:48:00.719Z,-0.98
2023-03-06T23:50:28.608Z,-0.97
2023-03-06T23:52:56.548Z,-1.09
2023-03-06T23:55:26.179Z,-0.97
2023-03-06T23:57:54.306Z,-0.92
